sensor_id;sensor_type;location;lat;lon;timestamp;pressure;altitude;pressure_sealevel;temperature;humidity
29385;BME280;16367;48.736;9.218;2022-07-01T00:01:46;-23663.63;;;15.71;100.00
29385;BME280;16367;48.736;9.218;2022-07-01T00:03:49;-23660.31;;;15.60;100.00
29385;BME280;16367;48.736;9.218;2022-07-01T00:05:52;-23668.34;;;15.86;100.00
29385;BME280;16367;48.736;9.218;2022-07-01T00:07:56;-23666.16;;;15.79;100.00
29385;BME280;16367;48.736;9.218;2022-07-01T00:10:00;-23664.72;;;15.74;100.00
29385;BME280;16367;48.736;9.218;2022-07-01T00:12:04;-23670.88;;;15.94;100.00
29385;BME280;16367;48.736;9.218;2022-07-01T00:14:07;-23665.50;;;15.77;100.00
29385;BME280;16367;48.736;9.218;2022-07-01T00:16:10;-23645.31;;;15.12;100.00
29385;BME280;16367;48.736;9.218;2022-07-01T00:18:13;-23639.00;;;14.92;100.00
29385;BME280;16367;48.736;9.218;2022-07-01T00:20:16;-23647.84;;;15.20;100.00
29385;BME280;16367;48.736;9.218;2022-07-01T00:22:19;-23646.75;;;15.17;100.00
29385;BME280;16367;48.736;9.218;2022-07-01T00:24:24;-23635.88;;;14.82;100.00
29385;BME280;16367;48.736;9.218;2022-07-01T00:26:27;-23630.50;;;14.65;100.00
29385;BME280;16367;48.736;9.218;2022-07-01T00:28:29;-23641.53;;;15.00;100.00
29385;BME280;16367;48.736;9.218;2022-07-01T00:30:32;-23634.91;;;14.79;100.00
29385;BME280;16367;48.736;9.218;2022-07-01T00:32:35;-23630.50;;;14.65;100.00
29385;BME280;16367;48.736;9.218;2022-07-01T00:34:38;-23633.97;;;14.76;100.00
29385;BME280;16367;48.736;9.218;2022-07-01T00:36:41;-23633.03;;;14.73;100.00
29385;BME280;16367;48.736;9.218;2022-07-01T00:38:44;-23628.59;;;14.59;100.00
29385;BME280;16367;48.736;9.218;2022-07-01T00:40:52;-23632.06;;;14.70;100.00
29385;BME280;16367;48.736;9.218;2022-07-01T00:42:56;-23624.66;;;14.46;100.00
29385;BME280;16367;48.736;9.218;2022-07-01T00:44:58;-23621.34;;;14.36;100.00
29385;BME280;16367;48.736;9.218;2022-07-01T00:47:02;-23632.06;;;14.70;100.00
29385;BME280;16367;48.736;9.218;2022-07-01T00:49:06;-23640.75;;;14.98;100.00
29385;BME280;16367;48.736;9.218;2022-07-01T00:51:08;-23638.88;;;14.91;100.00
29385;BME280;16367;48.736;9.218;2022-07-01T00:53:12;-23635.22;;;14.80;100.00
29385;BME280;16367;48.736;9.218;2022-07-01T00:55:15;-23642.81;;;15.04;100.00
29385;BME280;16367;48.736;9.218;2022-07-01T00:57:19;-23645.47;;;15.13;100.00
29385;BME280;16367;48.736;9.218;2022-07-01T00:59:22;-23646.91;;;15.17;100.00
29385;BME280;16367;48.736;9.218;2022-07-01T01:01:26;-23644.06;;;15.08;100.00
29385;BME280;16367;48.736;9.218;2022-07-01T01:03:30;-23635.88;;;14.82;100.00
29385;BME280;16367;48.736;9.218;2022-07-01T01:05:33;-23635.53;;;14.81;100.00
29385;BME280;16367;48.736;9.218;2022-07-01T01:07:36;-23639.97;;;14.95;100.00
29385;BME280;16367;48.736;9.218;2022-07-01T01:09:39;-23635.69;;;14.81;100.00
29385;BME280;16367;48.736;9.218;2022-07-01T01:11:42;-23641.22;;;14.99;100.00
29385;BME280;16367;48.736;9.218;2022-07-01T01:13:47;-23629.06;;;14.60;100.00
29385;BME280;16367;48.736;9.218;2022-07-01T01:15:50;-23625.59;;;14.49;100.00
29385;BME280;16367;48.736;9.218;2022-07-01T01:17:53;-23634.28;;;14.77;100.00
29385;BME280;16367;48.736;9.218;2022-07-01T01:19:55;-23628.28;;;14.58;100.00
29385;BME280;16367;48.736;9.218;2022-07-01T01:21:59;-23637.44;;;14.87;100.00
29385;BME280;16367;48.736;9.218;2022-07-01T01:24:03;-23639.34;;;14.93;100.00
29385;BME280;16367;48.736;9.218;2022-07-01T01:26:18;-23642.47;;;15.03;100.00
29385;BME280;16367;48.736;9.218;2022-07-01T01:28:21;-23636.66;;;14.84;100.00
29385;BME280;16367;48.736;9.218;2022-07-01T01:30:24;-23632.06;;;14.70;100.00
29385;BME280;16367;48.736;9.218;2022-07-01T01:32:27;-23640.75;;;14.98;100.00
29385;BME280;16367;48.736;9.218;2022-07-01T01:34:29;-23632.56;;;14.71;100.00
29385;BME280;16367;48.736;9.218;2022-07-01T01:36:32;-23632.69;;;14.72;100.00
29385;BME280;16367;48.736;9.218;2022-07-01T01:38:37;-23633.03;;;14.73;100.00
29385;BME280;16367;48.736;9.218;2022-07-01T01:40:39;-23625.28;;;14.48;100.00
29385;BME280;16367;48.736;9.218;2022-07-01T01:42:42;-23618.50;;;14.27;100.00
29385;BME280;16367;48.736;9.218;2022-07-01T01:44:45;-23624.03;;;14.44;100.00
29385;BME280;16367;48.736;9.218;2022-07-01T01:46:48;-23631.44;;;14.68;100.00
29385;BME280;16367;48.736;9.218;2022-07-01T01:48:51;-23614.38;;;14.13;100.00
29385;BME280;16367;48.736;9.218;2022-07-01T01:50:54;-23615.03;;;14.15;100.00
29385;BME280;16367;48.736;9.218;2022-07-01T01:52:57;-23614.06;;;14.12;100.00
29385;BME280;16367;48.736;9.218;2022-07-01T01:55:01;-23613.44;;;14.10;100.00
29385;BME280;16367;48.736;9.218;2022-07-01T01:57:04;-23618.81;;;14.28;100.00
29385;BME280;16367;48.736;9.218;2022-07-01T01:59:07;-23612.66;;;14.08;100.00
29385;BME280;16367;48.736;9.218;2022-07-01T02:01:10;-23619.13;;;14.29;100.00
29385;BME280;16367;48.736;9.218;2022-07-01T02:03:13;-23624.19;;;14.45;100.00
29385;BME280;16367;48.736;9.218;2022-07-01T02:05:16;-23614.56;;;14.14;100.00
29385;BME280;16367;48.736;9.218;2022-07-01T02:07:20;-23616.13;;;14.19;100.00
29385;BME280;16367;48.736;9.218;2022-07-01T02:09:23;-23618.34;;;14.26;100.00
29385;BME280;16367;48.736;9.218;2022-07-01T02:11:27;-23617.22;;;14.23;100.00
29385;BME280;16367;48.736;9.218;2022-07-01T02:13:30;-23610.13;;;14.00;100.00
29385;BME280;16367;48.736;9.218;2022-07-01T02:15:32;-23613.75;;;14.11;100.00
29385;BME280;16367;48.736;9.218;2022-07-01T02:17:35;-23609.50;;;13.98;100.00
29385;BME280;16367;48.736;9.218;2022-07-01T02:19:38;-23608.38;;;13.94;100.00
29385;BME280;16367;48.736;9.218;2022-07-01T02:21:41;-23608.06;;;13.93;100.00
29385;BME280;16367;48.736;9.218;2022-07-01T02:23:44;-23608.56;;;13.95;100.00
29385;BME280;16367;48.736;9.218;2022-07-01T02:25:47;-23602.06;;;13.74;100.00
29385;BME280;16367;48.736;9.218;2022-07-01T02:27:52;-23616.91;;;14.21;100.00
29385;BME280;16367;48.736;9.218;2022-07-01T02:29:54;-23614.88;;;14.15;100.00
29385;BME280;16367;48.736;9.218;2022-07-01T02:31:57;-23617.22;;;14.23;100.00
29385;BME280;16367;48.736;9.218;2022-07-01T02:34:00;-23614.72;;;14.14;100.00
29385;BME280;16367;48.736;9.218;2022-07-01T02:36:04;-23612.66;;;14.08;100.00
29385;BME280;16367;48.736;9.218;2022-07-01T02:38:07;-23613.44;;;14.10;100.00
29385;BME280;16367;48.736;9.218;2022-07-01T02:40:11;-23610.28;;;14.00;100.00
29385;BME280;16367;48.736;9.218;2022-07-01T02:42:14;-23614.72;;;14.14;100.00
29385;BME280;16367;48.736;9.218;2022-07-01T02:44:29;-23616.91;;;14.21;100.00
29385;BME280;16367;48.736;9.218;2022-07-01T02:46:32;-23613.28;;;14.10;100.00
29385;BME280;16367;48.736;9.218;2022-07-01T02:48:35;-23606.19;;;13.87;100.00
29385;BME280;16367;48.736;9.218;2022-07-01T02:50:37;-23599.84;;;13.67;100.00
29385;BME280;16367;48.736;9.218;2022-07-01T02:52:41;-23604.44;;;13.82;100.00
29385;BME280;16367;48.736;9.218;2022-07-01T02:54:44;-23608.38;;;13.94;100.00
29385;BME280;16367;48.736;9.218;2022-07-01T02:56:47;-23605.38;;;13.85;100.00
29385;BME280;16367;48.736;9.218;2022-07-01T02:58:49;-23611.22;;;14.03;100.00
29385;BME280;16367;48.736;9.218;2022-07-01T03:00:53;-23602.41;;;13.75;100.00
29385;BME280;16367;48.736;9.218;2022-07-01T03:02:56;-23610.28;;;14.00;100.00
29385;BME280;16367;48.736;9.218;2022-07-01T03:04:59;-23613.28;;;14.10;100.00
29385;BME280;16367;48.736;9.218;2022-07-01T03:07:03;-23613.13;;;14.09;100.00
29385;BME280;16367;48.736;9.218;2022-07-01T03:09:05;-23615.03;;;14.15;100.00
29385;BME280;16367;48.736;9.218;2022-07-01T03:11:08;-23619.28;;;14.29;100.00
29385;BME280;16367;48.736;9.218;2022-07-01T03:13:16;-23618.50;;;14.27;100.00
29385;BME280;16367;48.736;9.218;2022-07-01T03:15:20;-23618.50;;;14.27;100.00
29385;BME280;16367;48.736;9.218;2022-07-01T03:17:25;-23613.59;;;14.11;100.00
29385;BME280;16367;48.736;9.218;2022-07-01T03:19:28;-23617.38;;;14.23;100.00
29385;BME280;16367;48.736;9.218;2022-07-01T03:21:31;-23616.75;;;14.21;100.00
29385;BME280;16367;48.736;9.218;2022-07-01T03:23:34;-23604.44;;;13.82;100.00
29385;BME280;16367;48.736;9.218;2022-07-01T03:25:37;-23612.81;;;14.08;100.00
29385;BME280;16367;48.736;9.218;2022-07-01T03:27:40;-23618.50;;;14.27;100.00
29385;BME280;16367;48.736;9.218;2022-07-01T03:29:47;-23610.59;;;14.01;100.00
29385;BME280;16367;48.736;9.218;2022-07-01T03:31:50;-23613.75;;;14.11;100.00
29385;BME280;16367;48.736;9.218;2022-07-01T03:33:54;-23609.50;;;13.98;100.00
29385;BME280;16367;48.736;9.218;2022-07-01T03:35:57;-23613.28;;;14.10;100.00
29385;BME280;16367;48.736;9.218;2022-07-01T03:37:59;-23612.50;;;14.07;100.00
29385;BME280;16367;48.736;9.218;2022-07-01T03:40:02;-23604.59;;;13.82;100.00
29385;BME280;16367;48.736;9.218;2022-07-01T03:42:07;-23613.75;;;14.11;100.00
29385;BME280;16367;48.736;9.218;2022-07-01T03:44:10;-23614.72;;;14.14;100.00
29385;BME280;16367;48.736;9.218;2022-07-01T03:46:12;-23619.28;;;14.29;100.00
29385;BME280;16367;48.736;9.218;2022-07-01T03:48:15;-23617.22;;;14.23;100.00
29385;BME280;16367;48.736;9.218;2022-07-01T03:50:22;-23608.88;;;13.96;100.00
29385;BME280;16367;48.736;9.218;2022-07-01T03:52:25;-23607.44;;;13.91;100.00
29385;BME280;16367;48.736;9.218;2022-07-01T03:54:28;-23609.34;;;13.97;100.00
29385;BME280;16367;48.736;9.218;2022-07-01T03:56:34;-23615.03;;;14.15;100.00
29385;BME280;16367;48.736;9.218;2022-07-01T03:58:37;-23613.91;;;14.12;100.00
29385;BME280;16367;48.736;9.218;2022-07-01T04:00:40;-23616.59;;;14.20;100.00
29385;BME280;16367;48.736;9.218;2022-07-01T04:02:43;-23609.97;;;13.99;100.00
29385;BME280;16367;48.736;9.218;2022-07-01T04:04:46;-23610.59;;;14.01;100.00
29385;BME280;16367;48.736;9.218;2022-07-01T04:06:50;-23600.50;;;13.69;100.00
29385;BME280;16367;48.736;9.218;2022-07-01T04:08:53;-23602.88;;;13.77;100.00
29385;BME280;16367;48.736;9.218;2022-07-01T04:10:56;-23591.66;;;13.41;100.00
29385;BME280;16367;48.736;9.218;2022-07-01T04:12:59;-23597.00;;;13.58;100.00
29385;BME280;16367;48.736;9.218;2022-07-01T04:15:22;-23596.06;;;13.55;100.00
29385;BME280;16367;48.736;9.218;2022-07-01T04:17:25;-23596.53;;;13.57;100.00
29385;BME280;16367;48.736;9.218;2022-07-01T04:19:28;-23601.75;;;13.73;100.00
29385;BME280;16367;48.736;9.218;2022-07-01T04:21:31;-23600.34;;;13.69;100.00
29385;BME280;16367;48.736;9.218;2022-07-01T04:23:53;-23607.13;;;13.90;100.00
29385;BME280;16367;48.736;9.218;2022-07-01T04:25:58;-23603.66;;;13.79;100.00
29385;BME280;16367;48.736;9.218;2022-07-01T04:28:20;-23597.66;;;13.60;100.00
29385;BME280;16367;48.736;9.218;2022-07-01T04:30:23;-23599.84;;;13.67;100.00
29385;BME280;16367;48.736;9.218;2022-07-01T04:32:26;-23603.81;;;13.80;100.00
29385;BME280;16367;48.736;9.218;2022-07-01T04:34:29;-23601.91;;;13.74;100.00
29385;BME280;16367;48.736;9.218;2022-07-01T04:36:32;-23604.91;;;13.83;100.00
29385;BME280;16367;48.736;9.218;2022-07-01T04:38:35;-23606.81;;;13.89;100.00
29385;BME280;16367;48.736;9.218;2022-07-01T04:40:39;-23597.00;;;13.58;100.00
29385;BME280;16367;48.736;9.218;2022-07-01T04:42:42;-23599.22;;;13.65;100.00
29385;BME280;16367;48.736;9.218;2022-07-01T04:44:44;-23597.00;;;13.58;100.00
29385;BME280;16367;48.736;9.218;2022-07-01T04:46:47;-23593.22;;;13.46;100.00
29385;BME280;16367;48.736;9.218;2022-07-01T04:48:50;-23598.28;;;13.62;100.00
29385;BME280;16367;48.736;9.218;2022-07-01T04:50:53;-23601.75;;;13.73;100.00
29385;BME280;16367;48.736;9.218;2022-07-01T04:52:56;-23598.91;;;13.64;100.00
29385;BME280;16367;48.736;9.218;2022-07-01T04:54:59;-23598.91;;;13.64;100.00
29385;BME280;16367;48.736;9.218;2022-07-01T04:57:03;-23607.44;;;13.91;100.00
29385;BME280;16367;48.736;9.218;2022-07-01T04:59:06;-23600.97;;;13.71;100.00
29385;BME280;16367;48.736;9.218;2022-07-01T05:01:09;-23606.19;;;13.87;100.00
29385;BME280;16367;48.736;9.218;2022-07-01T05:03:12;-23602.22;;;13.75;100.00
29385;BME280;16367;48.736;9.218;2022-07-01T05:05:15;-23609.34;;;13.97;100.00
29385;BME280;16367;48.736;9.218;2022-07-01T05:07:17;-23605.22;;;13.84;100.00
29385;BME280;16367;48.736;9.218;2022-07-01T05:09:32;-23613.28;;;14.10;100.00
29385;BME280;16367;48.736;9.218;2022-07-01T05:11:37;-23609.97;;;13.99;100.00
29385;BME280;16367;48.736;9.218;2022-07-01T05:13:42;-23604.13;;;13.81;100.00
29385;BME280;16367;48.736;9.218;2022-07-01T05:15:45;-23606.97;;;13.90;100.00
29385;BME280;16367;48.736;9.218;2022-07-01T05:17:48;-23612.19;;;14.06;100.00
29385;BME280;16367;48.736;9.218;2022-07-01T05:20:10;-23604.91;;;13.83;100.00
29385;BME280;16367;48.736;9.218;2022-07-01T05:22:30;-23611.38;;;14.04;100.00
29385;BME280;16367;48.736;9.218;2022-07-01T05:24:33;-23599.22;;;13.65;100.00
29385;BME280;16367;48.736;9.218;2022-07-01T05:26:36;-23603.03;;;13.77;100.00
29385;BME280;16367;48.736;9.218;2022-07-01T05:28:39;-23608.88;;;13.96;100.00
29385;BME280;16367;48.736;9.218;2022-07-01T05:30:49;-23599.22;;;13.65;100.00
29385;BME280;16367;48.736;9.218;2022-07-01T05:32:52;-23598.91;;;13.64;100.00
29385;BME280;16367;48.736;9.218;2022-07-01T05:34:55;-23601.13;;;13.71;100.00
29385;BME280;16367;48.736;9.218;2022-07-01T05:36:58;-23601.59;;;13.73;100.00
29385;BME280;16367;48.736;9.218;2022-07-01T05:39:01;-23605.53;;;13.85;100.00
29385;BME280;16367;48.736;9.218;2022-07-01T05:41:04;-23613.44;;;14.10;100.00
29385;BME280;16367;48.736;9.218;2022-07-01T05:43:06;-23602.53;;;13.76;100.00
29385;BME280;16367;48.736;9.218;2022-07-01T05:45:10;-23601.91;;;13.74;100.00
29385;BME280;16367;48.736;9.218;2022-07-01T05:47:14;-23606.66;;;13.89;100.00
29385;BME280;16367;48.736;9.218;2022-07-01T05:49:17;-23604.91;;;13.83;100.00
29385;BME280;16367;48.736;9.218;2022-07-01T05:51:20;-23608.56;;;13.95;100.00
29385;BME280;16367;48.736;9.218;2022-07-01T05:53:23;-23618.81;;;14.28;100.00
29385;BME280;16367;48.736;9.218;2022-07-01T05:55:26;-23615.81;;;14.18;100.00
29385;BME280;16367;48.736;9.218;2022-07-01T05:57:28;-23617.88;;;14.25;100.00
29385;BME280;16367;48.736;9.218;2022-07-01T05:59:31;-23617.69;;;14.24;100.00
29385;BME280;16367;48.736;9.218;2022-07-01T06:01:34;-23610.13;;;14.00;100.00
29385;BME280;16367;48.736;9.218;2022-07-01T06:03:38;-23607.44;;;13.91;100.00
29385;BME280;16367;48.736;9.218;2022-07-01T06:05:42;-23608.38;;;13.94;100.00
29385;BME280;16367;48.736;9.218;2022-07-01T06:07:45;-23605.72;;;13.86;100.00
29385;BME280;16367;48.736;9.218;2022-07-01T06:09:47;-23608.06;;;13.93;100.00
29385;BME280;16367;48.736;9.218;2022-07-01T06:11:50;-23607.13;;;13.90;100.00
29385;BME280;16367;48.736;9.218;2022-07-01T06:13:53;-23601.13;;;13.71;100.00
29385;BME280;16367;48.736;9.218;2022-07-01T06:15:56;-23613.59;;;14.11;100.00
29385;BME280;16367;48.736;9.218;2022-07-01T06:18:00;-23616.28;;;14.19;100.00
29385;BME280;16367;48.736;9.218;2022-07-01T06:20:05;-23622.75;;;14.40;100.00
29385;BME280;16367;48.736;9.218;2022-07-01T06:22:09;-23620.09;;;14.32;100.00
29385;BME280;16367;48.736;9.218;2022-07-01T06:24:12;-23620.09;;;14.32;100.00
29385;BME280;16367;48.736;9.218;2022-07-01T06:26:15;-23617.69;;;14.24;100.00
29385;BME280;16367;48.736;9.218;2022-07-01T06:28:18;-23615.66;;;14.17;100.00
29385;BME280;16367;48.736;9.218;2022-07-01T06:30:21;-23617.88;;;14.25;100.00
29385;BME280;16367;48.736;9.218;2022-07-01T06:32:24;-23624.50;;;14.46;100.00
29385;BME280;16367;48.736;9.218;2022-07-01T06:34:26;-23617.53;;;14.23;100.00
29385;BME280;16367;48.736;9.218;2022-07-01T06:36:31;-23603.97;;;13.80;100.00
29385;BME280;16367;48.736;9.218;2022-07-01T06:38:33;-23619.75;;;14.31;100.00
29385;BME280;16367;48.736;9.218;2022-07-01T06:40:36;-23624.03;;;14.44;100.00
29385;BME280;16367;48.736;9.218;2022-07-01T06:42:39;-23623.88;;;14.44;100.00
29385;BME280;16367;48.736;9.218;2022-07-01T06:44:41;-23630.50;;;14.65;100.00
29385;BME280;16367;48.736;9.218;2022-07-01T06:46:44;-23630.03;;;14.63;100.00
29385;BME280;16367;48.736;9.218;2022-07-01T06:48:47;-23631.75;;;14.69;100.00
29385;BME280;16367;48.736;9.218;2022-07-01T06:50:50;-23629.06;;;14.60;100.00
29385;BME280;16367;48.736;9.218;2022-07-01T06:52:54;-23632.38;;;14.71;100.00
29385;BME280;16367;48.736;9.218;2022-07-01T06:54:57;-23624.19;;;14.45;100.00
29385;BME280;16367;48.736;9.218;2022-07-01T06:57:00;-23626.06;;;14.51;100.00
29385;BME280;16367;48.736;9.218;2022-07-01T06:59:03;-23621.03;;;14.35;100.00
29385;BME280;16367;48.736;9.218;2022-07-01T07:01:06;-23621.19;;;14.35;100.00
29385;BME280;16367;48.736;9.218;2022-07-01T07:03:08;-23612.97;;;14.09;100.00
29385;BME280;16367;48.736;9.218;2022-07-01T07:05:11;-23618.19;;;14.26;100.00
29385;BME280;16367;48.736;9.218;2022-07-01T07:07:14;-23630.34;;;14.64;100.00
29385;BME280;16367;48.736;9.218;2022-07-01T07:09:18;-23630.97;;;14.66;100.00
29385;BME280;16367;48.736;9.218;2022-07-01T07:11:21;-23625.28;;;14.48;100.00
29385;BME280;16367;48.736;9.218;2022-07-01T07:13:24;-23625.44;;;14.49;100.00
29385;BME280;16367;48.736;9.218;2022-07-01T07:15:27;-23613.44;;;14.10;100.00
29385;BME280;16367;48.736;9.218;2022-07-01T07:17:30;-23624.03;;;14.44;100.00
29385;BME280;16367;48.736;9.218;2022-07-01T07:19:33;-23624.50;;;14.46;100.00
29385;BME280;16367;48.736;9.218;2022-07-01T07:21:36;-23620.56;;;14.33;100.00
29385;BME280;16367;48.736;9.218;2022-07-01T07:23:39;-23618.97;;;14.28;100.00
29385;BME280;16367;48.736;9.218;2022-07-01T07:25:44;-23627.03;;;14.54;100.00
29385;BME280;16367;48.736;9.218;2022-07-01T07:27:47;-23627.34;;;14.55;100.00
29385;BME280;16367;48.736;9.218;2022-07-01T07:29:50;-23625.28;;;14.48;100.00
29385;BME280;16367;48.736;9.218;2022-07-01T07:31:52;-23627.97;;;14.57;100.00
29385;BME280;16367;48.736;9.218;2022-07-01T07:33:55;-23625.13;;;14.48;100.00
29385;BME280;16367;48.736;9.218;2022-07-01T07:35:58;-23625.28;;;14.48;100.00
29385;BME280;16367;48.736;9.218;2022-07-01T07:38:01;-23635.38;;;14.80;100.00
29385;BME280;16367;48.736;9.218;2022-07-01T07:40:05;-23632.06;;;14.70;100.00
29385;BME280;16367;48.736;9.218;2022-07-01T07:42:10;-23636.19;;;14.83;100.00
29385;BME280;16367;48.736;9.218;2022-07-01T07:44:13;-23640.59;;;14.97;100.00
29385;BME280;16367;48.736;9.218;2022-07-01T07:46:16;-23634.13;;;14.76;100.00
29385;BME280;16367;48.736;9.218;2022-07-01T07:48:19;-23632.06;;;14.70;100.00
29385;BME280;16367;48.736;9.218;2022-07-01T07:50:22;-23633.66;;;14.75;100.00
29385;BME280;16367;48.736;9.218;2022-07-01T07:52:25;-23633.03;;;14.73;100.00
29385;BME280;16367;48.736;9.218;2022-07-01T07:54:27;-23633.66;;;14.75;100.00
29385;BME280;16367;48.736;9.218;2022-07-01T07:56:30;-23630.81;;;14.66;100.00
29385;BME280;16367;48.736;9.218;2022-07-01T07:58:35;-23637.75;;;14.88;100.00
29385;BME280;16367;48.736;9.218;2022-07-01T08:00:38;-23641.69;;;15.01;100.00
29385;BME280;16367;48.736;9.218;2022-07-01T08:02:41;-23619.75;;;14.31;100.00
29385;BME280;16367;48.736;9.218;2022-07-01T08:04:44;-23616.75;;;14.21;100.00
29385;BME280;16367;48.736;9.218;2022-07-01T08:06:47;-23626.41;;;14.52;100.00
29385;BME280;16367;48.736;9.218;2022-07-01T08:08:50;-23627.97;;;14.57;100.00
29385;BME280;16367;48.736;9.218;2022-07-01T08:10:53;-23627.19;;;14.54;100.00
29385;BME280;16367;48.736;9.218;2022-07-01T08:12:56;-23630.81;;;14.66;100.00
29385;BME280;16367;48.736;9.218;2022-07-01T08:15:04;-23635.88;;;14.82;100.00
29385;BME280;16367;48.736;9.218;2022-07-01T08:17:07;-23626.88;;;14.53;100.00
29385;BME280;16367;48.736;9.218;2022-07-01T08:19:10;-23627.81;;;14.56;100.00
29385;BME280;16367;48.736;9.218;2022-07-01T08:21:13;-23635.88;;;14.82;100.00
29385;BME280;16367;48.736;9.218;2022-07-01T08:23:16;-23642.66;;;15.04;100.00
29385;BME280;16367;48.736;9.218;2022-07-01T08:25:18;-23640.59;;;14.97;100.00
29385;BME280;16367;48.736;9.218;2022-07-01T08:27:21;-23644.38;;;15.09;100.00
29385;BME280;16367;48.736;9.218;2022-07-01T08:29:24;-23642.81;;;15.04;100.00
29385;BME280;16367;48.736;9.218;2022-07-01T08:31:28;-23646.59;;;15.16;100.00
29385;BME280;16367;48.736;9.218;2022-07-01T08:33:33;-23637.13;;;14.86;100.00
29385;BME280;16367;48.736;9.218;2022-07-01T08:35:36;-23643.13;;;15.05;100.00
29385;BME280;16367;48.736;9.218;2022-07-01T08:37:39;-23637.28;;;14.86;100.00
29385;BME280;16367;48.736;9.218;2022-07-01T08:39:42;-23640.91;;;14.98;100.00
29385;BME280;16367;48.736;9.218;2022-07-01T08:41:45;-23651.16;;;15.31;100.00
29385;BME280;16367;48.736;9.218;2022-07-01T08:43:47;-23643.44;;;15.06;100.00
29385;BME280;16367;48.736;9.218;2022-07-01T08:45:51;-23633.66;;;14.75;100.00
29385;BME280;16367;48.736;9.218;2022-07-01T08:47:57;-23644.53;;;15.10;100.00
29385;BME280;16367;48.736;9.218;2022-07-01T08:50:03;-23651.16;;;15.31;100.00
29385;BME280;16367;48.736;9.218;2022-07-01T08:52:05;-23647.22;;;15.18;100.00
29385;BME280;16367;48.736;9.218;2022-07-01T08:54:10;-23641.22;;;14.99;100.00
29385;BME280;16367;48.736;9.218;2022-07-01T08:56:14;-23647.84;;;15.20;100.00
29385;BME280;16367;48.736;9.218;2022-07-01T08:58:34;-23648.63;;;15.23;100.00
29385;BME280;16367;48.736;9.218;2022-07-01T09:00:38;-23639.97;;;14.95;100.00
29385;BME280;16367;48.736;9.218;2022-07-01T09:02:56;-23648.78;;;15.23;100.00
29385;BME280;16367;48.736;9.218;2022-07-01T09:05:04;-23637.59;;;14.87;100.00
29385;BME280;16367;48.736;9.218;2022-07-01T09:07:09;-23639.81;;;14.94;100.00
29385;BME280;16367;48.736;9.218;2022-07-01T09:09:13;-23629.56;;;14.62;100.00
29385;BME280;16367;48.736;9.218;2022-07-01T09:11:18;-23646.59;;;15.16;100.00
29385;BME280;16367;48.736;9.218;2022-07-01T09:13:21;-23641.22;;;14.99;100.00
29385;BME280;16367;48.736;9.218;2022-07-01T09:15:26;-23643.91;;;15.08;100.00
29385;BME280;16367;48.736;9.218;2022-07-01T09:17:29;-23635.88;;;14.82;100.00
29385;BME280;16367;48.736;9.218;2022-07-01T09:19:35;-23645.31;;;15.12;100.00
29385;BME280;16367;48.736;9.218;2022-07-01T09:21:48;-23624.81;;;14.47;100.00
29385;BME280;16367;48.736;9.218;2022-07-01T09:23:52;-23615.66;;;14.17;100.00
29385;BME280;16367;48.736;9.218;2022-07-01T09:25:54;-23627.03;;;14.54;100.00
29385;BME280;16367;48.736;9.218;2022-07-01T09:28:08;-23621.34;;;14.36;100.00
29385;BME280;16367;48.736;9.218;2022-07-01T09:30:12;-23625.28;;;14.48;100.00
29385;BME280;16367;48.736;9.218;2022-07-01T09:32:17;-23619.44;;;14.30;100.00
29385;BME280;16367;48.736;9.218;2022-07-01T09:34:20;-23623.88;;;14.44;100.00
29385;BME280;16367;48.736;9.218;2022-07-01T09:36:25;-23627.97;;;14.57;100.00
29385;BME280;16367;48.736;9.218;2022-07-01T09:38:28;-23630.66;;;14.65;100.00
29385;BME280;16367;48.736;9.218;2022-07-01T09:40:51;-23622.91;;;14.41;100.00
29385;BME280;16367;48.736;9.218;2022-07-01T09:42:55;-23627.34;;;14.55;100.00
29385;BME280;16367;48.736;9.218;2022-07-01T09:44:59;-23629.06;;;14.60;100.00
29385;BME280;16367;48.736;9.218;2022-07-01T09:47:07;-23630.97;;;14.66;100.00
29385;BME280;16367;48.736;9.218;2022-07-01T09:49:09;-23631.44;;;14.68;100.00
29385;BME280;16367;48.736;9.218;2022-07-01T09:51:14;-23633.34;;;14.74;100.00
29385;BME280;16367;48.736;9.218;2022-07-01T09:53:19;-23625.75;;;14.50;100.00
29385;BME280;16367;48.736;9.218;2022-07-01T09:55:22;-23619.28;;;14.29;100.00
29385;BME280;16367;48.736;9.218;2022-07-01T09:57:25;-23629.56;;;14.62;100.00
29385;BME280;16367;48.736;9.218;2022-07-01T09:59:28;-23632.69;;;14.72;100.00
29385;BME280;16367;48.736;9.218;2022-07-01T10:01:32;-23638.06;;;14.89;100.00
29385;BME280;16367;48.736;9.218;2022-07-01T10:03:37;-23643.75;;;15.07;100.00
29385;BME280;16367;48.736;9.218;2022-07-01T10:05:45;-23647.69;;;15.20;100.00
29385;BME280;16367;48.736;9.218;2022-07-01T10:07:59;-23634.91;;;14.79;100.00
29385;BME280;16367;48.736;9.218;2022-07-01T10:10:19;-23658.56;;;15.54;100.00
29385;BME280;16367;48.736;9.218;2022-07-01T10:12:31;-23659.84;;;15.58;100.00
29385;BME280;16367;48.736;9.218;2022-07-01T10:14:37;-23666.94;;;15.81;100.00
29385;BME280;16367;48.736;9.218;2022-07-01T10:16:45;-23658.41;;;15.54;100.00
29385;BME280;16367;48.736;9.218;2022-07-01T10:18:51;-23650.22;;;15.28;100.00
29385;BME280;16367;48.736;9.218;2022-07-01T10:20:55;-23643.44;;;15.06;100.00
29385;BME280;16367;48.736;9.218;2022-07-01T10:23:01;-23644.22;;;15.09;100.00
29385;BME280;16367;48.736;9.218;2022-07-01T10:25:31;-23651.31;;;15.31;100.00
29385;BME280;16367;48.736;9.218;2022-07-01T10:27:35;-23651.63;;;15.32;100.00
29385;BME280;16367;48.736;9.218;2022-07-01T10:29:38;-23662.53;;;15.67;100.00
29385;BME280;16367;48.736;9.218;2022-07-01T10:31:41;-23664.88;;;15.75;100.00
29385;BME280;16367;48.736;9.218;2022-07-01T10:33:46;-23663.63;;;15.71;100.00
29385;BME280;16367;48.736;9.218;2022-07-01T10:35:49;-23651.00;;;15.30;100.00
29385;BME280;16367;48.736;9.218;2022-07-01T10:37:58;-23645.97;;;15.14;100.00
29385;BME280;16367;48.736;9.218;2022-07-01T10:40:03;-23655.75;;;15.45;100.00
29385;BME280;16367;48.736;9.218;2022-07-01T10:42:09;-23665.81;;;15.78;100.00